»·PEaware :: N292MC KINW-KPHX

N292MC :: KINW-KPHX

FLIGHT INFORMATION

Flight Status: Arrived
Operator: Privately registered:
United States
More flights under this callsign
Pilot: Maurice C. (12314)
Aircraft: Unknown
(KODI)
More flights by this aircraft type
Origin: KINW Winslow-Lindbergh Regl
United States
Destination: KPHX Phoenix Sky Harbor Intl
United States
More flights between these airports :: More routes between these airports
Route: FERER VPBAR
File this flight plan on PilotEdge
Remarks: ALPHABET CHALLENGE
Altitude:
(Current/Filed)
8,500ft
Speed:
(Current/Filed)
180kts
Departed: 19-Oct-20 07:48 AM
Arrived: 19-Oct-20 08:34 AM
Distance/Time
Traveled:
115nm/0:45
Distance/Time
To Go:
Arrived

Flight Plot

Page will automatically refresh every two minutes.

Flight plan parsing failed; only flown route is shown


Map Options




Map Legend


Flown Route
Filed Route
Departure Airport
Arrival Airport
Navaid (VOR, NDB)
Fix

Horizontal Profiles

Position Reports

Time Latitude Longitude Heading Altitude Ground
Speed
19-Oct-20 07:43 35.022463 -110.715922 359 4884ft 0kts
19-Oct-20 07:44 35.023054 -110.717124 299 4888ft 11kts
19-Oct-20 07:45 35.025146 -110.721648 300 4894ft 24kts
19-Oct-20 07:46 35.028084 -110.727768 0 4906ft 4kts
19-Oct-20 07:47 35.028796 -110.727351 84 4906ft 13kts
19-Oct-20 07:48 35.016514 -110.703277 129 5736ft 116kts
19-Oct-20 07:49 34.981534 -110.716253 223 6417ft 160kts
19-Oct-20 07:50 34.958509 -110.760502 238 7232ft 148kts
19-Oct-20 07:50 34.941218 -110.795857 237 7921ft 143kts
19-Oct-20 07:52 34.916071 -110.844567 236 8497ft 158kts
19-Oct-20 07:52 34.894975 -110.882881 235 8507ft 164kts
19-Oct-20 07:54 34.864597 -110.936796 235 8520ft 166kts
19-Oct-20 07:55 34.833562 -110.978437 226 8517ft 166kts
19-Oct-20 07:55 34.807097 -111.012353 226 8517ft 166kts
19-Oct-20 07:57 34.769951 -111.059937 226 8511ft 166kts
19-Oct-20 07:57 34.743553 -111.093731 226 8510ft 165kts
19-Oct-20 07:59 34.706492 -111.140964 226 8504ft 165kts
19-Oct-20 07:59 34.680015 -111.174596 226 8506ft 165kts
19-Oct-20 08:00 34.648247 -111.215467 227 8496ft 166kts
19-Oct-20 08:01 34.616881 -111.256872 227 8504ft 166kts
19-Oct-20 08:02 34.584840 -111.299356 227 8503ft 178kts
19-Oct-20 08:03 34.552440 -111.345135 231 8501ft 179kts
19-Oct-20 08:04 34.521419 -111.392355 230 8501ft 179kts
19-Oct-20 08:05 34.489110 -111.438450 229 8483ft 179kts
19-Oct-20 08:06 34.455019 -111.482712 225 8474ft 179kts
19-Oct-20 08:07 34.420169 -111.525738 225 8480ft 179kts
19-Oct-20 08:08 34.385313 -111.568740 225 8474ft 179kts
19-Oct-20 08:09 34.349744 -111.610791 223 8472ft 179kts
19-Oct-20 08:10 34.312421 -111.650060 215 8470ft 178kts
19-Oct-20 08:11 34.267180 -111.673376 197 8497ft 178kts
19-Oct-20 08:12 34.219408 -111.688814 189 8486ft 179kts
19-Oct-20 08:13 34.169847 -111.695704 181 8461ft 180kts
19-Oct-20 08:14 34.119592 -111.695867 180 8430ft 180kts
19-Oct-20 08:15 34.069489 -111.695864 180 8400ft 180kts
19-Oct-20 08:16 34.019523 -111.695861 180 8394ft 179kts
19-Oct-20 08:17 33.970178 -111.687062 170 8395ft 180kts
19-Oct-20 08:18 33.918742 -111.676115 170 7782ft 192kts
19-Oct-20 08:19 33.866237 -111.665355 170 7329ft 187kts
19-Oct-20 08:20 33.815269 -111.655074 173 7075ft 186kts
19-Oct-20 08:21 33.773983 -111.688017 213 6779ft 186kts
19-Oct-20 08:22 33.731780 -111.724539 218 6368ft 188kts
19-Oct-20 08:23 33.692079 -111.763001 217 6289ft 182kts
19-Oct-20 08:24 33.652203 -111.801500 218 6051ft 186kts
19-Oct-20 08:25 33.611532 -111.840988 218 5598ft 191kts
19-Oct-20 08:26 33.569390 -111.881558 218 4891ft 196kts
19-Oct-20 08:27 33.526766 -111.922533 218 4292ft 192kts
19-Oct-20 08:28 33.482385 -111.944967 189 4889ft 178kts
19-Oct-20 08:29 33.466581 -111.992036 245 3720ft 153kts
19-Oct-20 08:30 33.437120 -112.006165 182 2746ft 88kts
19-Oct-20 08:31 33.419764 -112.018566 258 2180ft 95kts
19-Oct-20 08:32 33.427337 -112.041844 55 1706ft 83kts
19-Oct-20 08:33 33.428853 -112.020817 92 1140ft 28kts
19-Oct-20 08:34 33.427997 -112.016610 199 1140ft 0kts
19-Oct-20 08:35 33.427724 -112.017992 271 1140ft 25kts
19-Oct-20 08:36 33.426763 -112.023503 133 1140ft 15kts
19-Oct-20 08:37 33.426410 -112.022718 88 1140ft 0kts
19-Oct-20 08:38 33.426410 -112.022718 88 1140ft 0kts

Navigation Log

Ident Type
Flight plan parsing failed, navigation log unavailable